sensor_id;sensor_type;location;lat;lon;timestamp;P1;durP1;ratioP1;P2;durP2;ratioP2
11064;SDS011;5585;52.530;7.320;2022-07-29T00:01:00;1.73;;;1.17;;
11064;SDS011;5585;52.530;7.320;2022-07-29T00:03:26;2.10;;;0.95;;
11064;SDS011;5585;52.530;7.320;2022-07-29T00:05:52;2.00;;;1.58;;
11064;SDS011;5585;52.530;7.320;2022-07-29T00:08:19;1.00;;;0.80;;
11064;SDS011;5585;52.530;7.320;2022-07-29T00:10:46;1.77;;;0.95;;
11064;SDS011;5585;52.530;7.320;2022-07-29T00:13:12;2.00;;;1.13;;
11064;SDS011;5585;52.530;7.320;2022-07-29T00:15:39;2.58;;;1.05;;
11064;SDS011;5585;52.530;7.320;2022-07-29T00:18:06;2.35;;;1.13;;
11064;SDS011;5585;52.530;7.320;2022-07-29T00:20:33;1.77;;;0.93;;
11064;SDS011;5585;52.530;7.320;2022-07-29T00:22:59;2.55;;;1.10;;
11064;SDS011;5585;52.530;7.320;2022-07-29T00:25:26;2.22;;;1.10;;
11064;SDS011;5585;52.530;7.320;2022-07-29T00:27:52;1.65;;;0.93;;
11064;SDS011;5585;52.530;7.320;2022-07-29T00:30:19;1.02;;;0.85;;
11064;SDS011;5585;52.530;7.320;2022-07-29T00:32:45;2.25;;;1.00;;
11064;SDS011;5585;52.530;7.320;2022-07-29T00:35:13;1.85;;;0.90;;
11064;SDS011;5585;52.530;7.320;2022-07-29T00:37:57;1.45;;;1.13;;
11064;SDS011;5585;52.530;7.320;2022-07-29T00:40:24;4.25;;;1.20;;
11064;SDS011;5585;52.530;7.320;2022-07-29T00:42:50;2.40;;;1.15;;
11064;SDS011;5585;52.530;7.320;2022-07-29T00:45:17;7.47;;;1.10;;
11064;SDS011;5585;52.530;7.320;2022-07-29T00:47:44;1.40;;;1.00;;
11064;SDS011;5585;52.530;7.320;2022-07-29T00:50:11;3.08;;;1.30;;
11064;SDS011;5585;52.530;7.320;2022-07-29T00:52:39;1.45;;;1.02;;
11064;SDS011;5585;52.530;7.320;2022-07-29T00:55:07;1.63;;;1.10;;
11064;SDS011;5585;52.530;7.320;2022-07-29T00:57:34;1.60;;;1.20;;
11064;SDS011;5585;52.530;7.320;2022-07-29T01:00:01;1.73;;;0.90;;
11064;SDS011;5585;52.530;7.320;2022-07-29T01:02:27;3.08;;;1.30;;
11064;SDS011;5585;52.530;7.320;2022-07-29T01:04:54;1.98;;;1.10;;
11064;SDS011;5585;52.530;7.320;2022-07-29T01:07:22;2.58;;;1.30;;
11064;SDS011;5585;52.530;7.320;2022-07-29T01:09:50;2.38;;;1.10;;
11064;SDS011;5585;52.530;7.320;2022-07-29T01:12:19;2.08;;;0.85;;
11064;SDS011;5585;52.530;7.320;2022-07-29T01:14:47;2.80;;;1.13;;
11064;SDS011;5585;52.530;7.320;2022-07-29T01:17:17;1.15;;;0.93;;
11064;SDS011;5585;52.530;7.320;2022-07-29T01:19:47;2.05;;;0.90;;
11064;SDS011;5585;52.530;7.320;2022-07-29T01:22:18;1.55;;;1.17;;
11064;SDS011;5585;52.530;7.320;2022-07-29T01:24:55;1.45;;;0.93;;
11064;SDS011;5585;52.530;7.320;2022-07-29T01:27:31;1.42;;;0.98;;
11064;SDS011;5585;52.530;7.320;2022-07-29T01:30:01;1.85;;;0.98;;
11064;SDS011;5585;52.530;7.320;2022-07-29T01:32:29;1.13;;;1.00;;
11064;SDS011;5585;52.530;7.320;2022-07-29T01:34:56;2.05;;;1.00;;
11064;SDS011;5585;52.530;7.320;2022-07-29T01:37:26;2.17;;;1.35;;
11064;SDS011;5585;52.530;7.320;2022-07-29T01:39:55;0.98;;;0.75;;
11064;SDS011;5585;52.530;7.320;2022-07-29T01:42:24;1.58;;;1.23;;
11064;SDS011;5585;52.530;7.320;2022-07-29T01:44:53;1.23;;;0.98;;
11064;SDS011;5585;52.530;7.320;2022-07-29T01:47:23;1.42;;;1.10;;
11064;SDS011;5585;52.530;7.320;2022-07-29T01:49:51;3.90;;;1.15;;
11064;SDS011;5585;52.530;7.320;2022-07-29T01:52:21;2.88;;;1.15;;
11064;SDS011;5585;52.530;7.320;2022-07-29T01:54:51;1.35;;;0.85;;
11064;SDS011;5585;52.530;7.320;2022-07-29T01:57:19;1.58;;;1.15;;
11064;SDS011;5585;52.530;7.320;2022-07-29T01:59:47;1.90;;;1.15;;
11064;SDS011;5585;52.530;7.320;2022-07-29T02:02:15;2.72;;;1.33;;
11064;SDS011;5585;52.530;7.320;2022-07-29T02:04:43;3.05;;;1.30;;
11064;SDS011;5585;52.530;7.320;2022-07-29T02:07:13;1.58;;;1.00;;
11064;SDS011;5585;52.530;7.320;2022-07-29T02:09:41;2.28;;;1.20;;
11064;SDS011;5585;52.530;7.320;2022-07-29T02:12:09;2.10;;;1.08;;
11064;SDS011;5585;52.530;7.320;2022-07-29T02:14:37;1.02;;;0.80;;
11064;SDS011;5585;52.530;7.320;2022-07-29T02:17:04;2.30;;;1.00;;
11064;SDS011;5585;52.530;7.320;2022-07-29T02:19:31;1.65;;;0.77;;
11064;SDS011;5585;52.530;7.320;2022-07-29T02:22:00;2.50;;;1.10;;
11064;SDS011;5585;52.530;7.320;2022-07-29T02:24:27;1.45;;;0.90;;
11064;SDS011;5585;52.530;7.320;2022-07-29T02:26:55;2.65;;;1.20;;
11064;SDS011;5585;52.530;7.320;2022-07-29T02:29:22;1.98;;;1.10;;
11064;SDS011;5585;52.530;7.320;2022-07-29T02:31:49;2.10;;;1.02;;
11064;SDS011;5585;52.530;7.320;2022-07-29T02:34:17;2.08;;;1.10;;
11064;SDS011;5585;52.530;7.320;2022-07-29T02:36:44;1.67;;;0.90;;
11064;SDS011;5585;52.530;7.320;2022-07-29T02:39:13;1.92;;;1.02;;
11064;SDS011;5585;52.530;7.320;2022-07-29T02:41:42;2.25;;;1.00;;
11064;SDS011;5585;52.530;7.320;2022-07-29T02:44:10;3.38;;;1.23;;
11064;SDS011;5585;52.530;7.320;2022-07-29T02:46:37;2.70;;;1.20;;
11064;SDS011;5585;52.530;7.320;2022-07-29T02:49:09;4.97;;;1.20;;
11064;SDS011;5585;52.530;7.320;2022-07-29T02:51:40;1.77;;;1.00;;
11064;SDS011;5585;52.530;7.320;2022-07-29T02:54:08;1.70;;;1.30;;
11064;SDS011;5585;52.530;7.320;2022-07-29T02:56:36;2.15;;;1.50;;
11064;SDS011;5585;52.530;7.320;2022-07-29T02:59:06;2.58;;;1.27;;
11064;SDS011;5585;52.530;7.320;2022-07-29T03:01:34;1.98;;;1.15;;
11064;SDS011;5585;52.530;7.320;2022-07-29T03:04:01;2.03;;;1.10;;
11064;SDS011;5585;52.530;7.320;2022-07-29T03:06:29;2.15;;;1.40;;
11064;SDS011;5585;52.530;7.320;2022-07-29T03:08:57;3.10;;;1.15;;
11064;SDS011;5585;52.530;7.320;2022-07-29T03:11:23;1.92;;;1.00;;
11064;SDS011;5585;52.530;7.320;2022-07-29T03:13:52;1.65;;;1.20;;
11064;SDS011;5585;52.530;7.320;2022-07-29T03:16:19;4.53;;;1.50;;
11064;SDS011;5585;52.530;7.320;2022-07-29T03:18:46;1.38;;;1.00;;
11064;SDS011;5585;52.530;7.320;2022-07-29T03:21:13;1.77;;;1.10;;
11064;SDS011;5585;52.530;7.320;2022-07-29T03:23:43;1.95;;;1.08;;
11064;SDS011;5585;52.530;7.320;2022-07-29T03:26:10;1.30;;;1.00;;
11064;SDS011;5585;52.530;7.320;2022-07-29T03:28:36;2.38;;;1.10;;
11064;SDS011;5585;52.530;7.320;2022-07-29T03:31:04;2.35;;;1.13;;
11064;SDS011;5585;52.530;7.320;2022-07-29T03:33:30;2.17;;;1.10;;
11064;SDS011;5585;52.530;7.320;2022-07-29T03:35:57;1.63;;;1.05;;
11064;SDS011;5585;52.530;7.320;2022-07-29T03:38:23;2.33;;;1.20;;
11064;SDS011;5585;52.530;7.320;2022-07-29T03:40:51;1.98;;;1.20;;
11064;SDS011;5585;52.530;7.320;2022-07-29T03:43:19;2.15;;;1.10;;
11064;SDS011;5585;52.530;7.320;2022-07-29T03:45:47;3.33;;;1.23;;
11064;SDS011;5585;52.530;7.320;2022-07-29T03:48:17;1.42;;;1.00;;
11064;SDS011;5585;52.530;7.320;2022-07-29T03:50:45;2.78;;;1.02;;
11064;SDS011;5585;52.530;7.320;2022-07-29T03:53:11;2.38;;;1.35;;
11064;SDS011;5585;52.530;7.320;2022-07-29T03:55:40;2.53;;;1.10;;
11064;SDS011;5585;52.530;7.320;2022-07-29T03:58:07;3.45;;;1.13;;
11064;SDS011;5585;52.530;7.320;2022-07-29T04:00:34;1.70;;;1.27;;
11064;SDS011;5585;52.530;7.320;2022-07-29T04:03:00;1.48;;;1.10;;
11064;SDS011;5585;52.530;7.320;2022-07-29T04:05:29;1.73;;;1.13;;
11064;SDS011;5585;52.530;7.320;2022-07-29T04:07:55;2.28;;;1.10;;
11064;SDS011;5585;52.530;7.320;2022-07-29T04:10:22;3.03;;;1.35;;
11064;SDS011;5585;52.530;7.320;2022-07-29T04:12:48;1.42;;;1.02;;
11064;SDS011;5585;52.530;7.320;2022-07-29T04:15:48;2.40;;;1.08;;
11064;SDS011;5585;52.530;7.320;2022-07-29T04:18:15;1.95;;;1.20;;
11064;SDS011;5585;52.530;7.320;2022-07-29T04:20:42;1.58;;;1.20;;
11064;SDS011;5585;52.530;7.320;2022-07-29T04:23:09;3.28;;;1.17;;
11064;SDS011;5585;52.530;7.320;2022-07-29T04:25:36;3.97;;;1.05;;
11064;SDS011;5585;52.530;7.320;2022-07-29T04:28:06;1.27;;;1.00;;
11064;SDS011;5585;52.530;7.320;2022-07-29T04:30:33;1.52;;;0.90;;
11064;SDS011;5585;52.530;7.320;2022-07-29T04:32:59;2.70;;;1.20;;
11064;SDS011;5585;52.530;7.320;2022-07-29T04:35:26;1.58;;;1.20;;
11064;SDS011;5585;52.530;7.320;2022-07-29T04:37:54;2.08;;;1.00;;
11064;SDS011;5585;52.530;7.320;2022-07-29T04:40:20;2.47;;;1.02;;
11064;SDS011;5585;52.530;7.320;2022-07-29T04:42:47;2.78;;;1.20;;
11064;SDS011;5585;52.530;7.320;2022-07-29T04:45:14;2.78;;;1.00;;
11064;SDS011;5585;52.530;7.320;2022-07-29T04:47:40;3.25;;;1.40;;
11064;SDS011;5585;52.530;7.320;2022-07-29T04:50:07;1.10;;;1.00;;
11064;SDS011;5585;52.530;7.320;2022-07-29T04:52:34;2.70;;;1.17;;
11064;SDS011;5585;52.530;7.320;2022-07-29T04:55:03;1.50;;;1.17;;
11064;SDS011;5585;52.530;7.320;2022-07-29T04:57:30;3.35;;;1.50;;
11064;SDS011;5585;52.530;7.320;2022-07-29T04:59:57;3.20;;;1.30;;
11064;SDS011;5585;52.530;7.320;2022-07-29T05:02:23;2.75;;;1.40;;
11064;SDS011;5585;52.530;7.320;2022-07-29T05:04:50;2.33;;;1.20;;
11064;SDS011;5585;52.530;7.320;2022-07-29T05:07:16;3.92;;;1.30;;
11064;SDS011;5585;52.530;7.320;2022-07-29T05:09:42;1.40;;;0.90;;
11064;SDS011;5585;52.530;7.320;2022-07-29T05:12:10;2.70;;;1.35;;
11064;SDS011;5585;52.530;7.320;2022-07-29T05:14:37;2.38;;;1.58;;
11064;SDS011;5585;52.530;7.320;2022-07-29T05:17:03;2.17;;;1.10;;
11064;SDS011;5585;52.530;7.320;2022-07-29T05:19:30;2.05;;;1.23;;
11064;SDS011;5585;52.530;7.320;2022-07-29T05:21:56;2.20;;;1.30;;
11064;SDS011;5585;52.530;7.320;2022-07-29T05:24:25;3.03;;;1.35;;
11064;SDS011;5585;52.530;7.320;2022-07-29T05:26:51;1.70;;;1.17;;
11064;SDS011;5585;52.530;7.320;2022-07-29T05:29:19;1.40;;;1.08;;
11064;SDS011;5585;52.530;7.320;2022-07-29T05:31:45;1.73;;;1.25;;
11064;SDS011;5585;52.530;7.320;2022-07-29T05:34:12;2.45;;;1.10;;
11064;SDS011;5585;52.530;7.320;2022-07-29T05:36:38;1.30;;;1.20;;
11064;SDS011;5585;52.530;7.320;2022-07-29T05:39:05;3.55;;;1.27;;
11064;SDS011;5585;52.530;7.320;2022-07-29T05:41:31;2.35;;;1.15;;
11064;SDS011;5585;52.530;7.320;2022-07-29T05:43:58;2.05;;;1.38;;
11064;SDS011;5585;52.530;7.320;2022-07-29T05:46:26;2.95;;;1.48;;
11064;SDS011;5585;52.530;7.320;2022-07-29T05:48:52;2.78;;;1.50;;
11064;SDS011;5585;52.530;7.320;2022-07-29T05:51:18;1.40;;;1.10;;
11064;SDS011;5585;52.530;7.320;2022-07-29T05:53:45;3.10;;;1.33;;
11064;SDS011;5585;52.530;7.320;2022-07-29T05:56:11;1.75;;;1.08;;
11064;SDS011;5585;52.530;7.320;2022-07-29T05:58:38;1.95;;;1.20;;
11064;SDS011;5585;52.530;7.320;2022-07-29T06:01:04;3.67;;;1.70;;
11064;SDS011;5585;52.530;7.320;2022-07-29T06:03:32;5.50;;;1.42;;
11064;SDS011;5585;52.530;7.320;2022-07-29T06:05:59;1.50;;;1.20;;
11064;SDS011;5585;52.530;7.320;2022-07-29T06:08:26;2.80;;;1.20;;
11064;SDS011;5585;52.530;7.320;2022-07-29T06:10:52;1.40;;;1.15;;
11064;SDS011;5585;52.530;7.320;2022-07-29T06:13:18;1.90;;;1.30;;
11064;SDS011;5585;52.530;7.320;2022-07-29T06:15:45;2.55;;;1.30;;
11064;SDS011;5585;52.530;7.320;2022-07-29T06:18:11;2.35;;;1.00;;
11064;SDS011;5585;52.530;7.320;2022-07-29T06:20:39;1.52;;;1.02;;
11064;SDS011;5585;52.530;7.320;2022-07-29T06:23:06;3.10;;;1.20;;
11064;SDS011;5585;52.530;7.320;2022-07-29T06:25:32;2.63;;;1.48;;
11064;SDS011;5585;52.530;7.320;2022-07-29T06:28:00;2.85;;;1.33;;
11064;SDS011;5585;52.530;7.320;2022-07-29T06:30:26;2.08;;;1.30;;
11064;SDS011;5585;52.530;7.320;2022-07-29T06:32:53;1.55;;;1.10;;
11064;SDS011;5585;52.530;7.320;2022-07-29T06:35:20;2.33;;;1.15;;
11064;SDS011;5585;52.530;7.320;2022-07-29T06:37:48;1.30;;;0.80;;
11064;SDS011;5585;52.530;7.320;2022-07-29T06:40:14;1.92;;;1.15;;
11064;SDS011;5585;52.530;7.320;2022-07-29T06:42:59;2.22;;;1.27;;
11064;SDS011;5585;52.530;7.320;2022-07-29T06:45:25;1.85;;;1.15;;
11064;SDS011;5585;52.530;7.320;2022-07-29T06:47:51;1.42;;;1.08;;
11064;SDS011;5585;52.530;7.320;2022-07-29T06:50:18;2.47;;;1.40;;
11064;SDS011;5585;52.530;7.320;2022-07-29T06:52:44;1.38;;;0.95;;
11064;SDS011;5585;52.530;7.320;2022-07-29T06:55:12;2.08;;;1.40;;
11064;SDS011;5585;52.530;7.320;2022-07-29T06:57:39;2.38;;;1.30;;
11064;SDS011;5585;52.530;7.320;2022-07-29T07:00:06;2.35;;;1.30;;
11064;SDS011;5585;52.530;7.320;2022-07-29T07:02:33;3.05;;;1.33;;
11064;SDS011;5585;52.530;7.320;2022-07-29T07:04:59;1.10;;;1.00;;
11064;SDS011;5585;52.530;7.320;2022-07-29T07:07:25;1.08;;;0.90;;
11064;SDS011;5585;52.530;7.320;2022-07-29T07:09:52;1.42;;;1.02;;
11064;SDS011;5585;52.530;7.320;2022-07-29T07:12:20;2.47;;;1.38;;
11064;SDS011;5585;52.530;7.320;2022-07-29T07:14:46;1.90;;;0.82;;
11064;SDS011;5585;52.530;7.320;2022-07-29T07:17:13;1.30;;;1.10;;
11064;SDS011;5585;52.530;7.320;2022-07-29T07:19:39;1.70;;;1.20;;
11064;SDS011;5585;52.530;7.320;2022-07-29T07:22:06;2.08;;;1.40;;
11064;SDS011;5585;52.530;7.320;2022-07-29T07:24:32;1.95;;;1.50;;
11064;SDS011;5585;52.530;7.320;2022-07-29T07:26:58;1.48;;;1.20;;
11064;SDS011;5585;52.530;7.320;2022-07-29T07:29:26;2.63;;;1.20;;
11064;SDS011;5585;52.530;7.320;2022-07-29T07:31:53;2.17;;;1.17;;
11064;SDS011;5585;52.530;7.320;2022-07-29T07:34:20;1.55;;;1.10;;
11064;SDS011;5585;52.530;7.320;2022-07-29T07:36:46;1.42;;;1.05;;
11064;SDS011;5585;52.530;7.320;2022-07-29T07:39:13;1.00;;;0.90;;
11064;SDS011;5585;52.530;7.320;2022-07-29T07:41:39;1.83;;;1.33;;
11064;SDS011;5585;52.530;7.320;2022-07-29T07:44:05;2.28;;;1.30;;
11064;SDS011;5585;52.530;7.320;2022-07-29T07:46:33;3.17;;;1.38;;
11064;SDS011;5585;52.530;7.320;2022-07-29T07:49:00;2.47;;;1.20;;
11064;SDS011;5585;52.530;7.320;2022-07-29T07:51:26;1.65;;;1.10;;
11064;SDS011;5585;52.530;7.320;2022-07-29T07:53:53;1.48;;;1.30;;
11064;SDS011;5585;52.530;7.320;2022-07-29T07:56:19;2.55;;;1.30;;
11064;SDS011;5585;52.530;7.320;2022-07-29T07:58:46;2.85;;;1.20;;
11064;SDS011;5585;52.530;7.320;2022-07-29T08:01:12;1.33;;;1.00;;
11064;SDS011;5585;52.530;7.320;2022-07-29T08:03:40;2.10;;;1.20;;
11064;SDS011;5585;52.530;7.320;2022-07-29T08:06:07;3.40;;;1.50;;
11064;SDS011;5585;52.530;7.320;2022-07-29T08:08:33;1.98;;;1.35;;
11064;SDS011;5585;52.530;7.320;2022-07-29T08:11:00;1.30;;;1.00;;
11064;SDS011;5585;52.530;7.320;2022-07-29T08:13:27;1.77;;;1.30;;
11064;SDS011;5585;52.530;7.320;2022-07-29T08:15:55;1.50;;;1.17;;
11064;SDS011;5585;52.530;7.320;2022-07-29T08:18:25;2.88;;;1.38;;
11064;SDS011;5585;52.530;7.320;2022-07-29T08:20:53;2.35;;;1.40;;
11064;SDS011;5585;52.530;7.320;2022-07-29T08:23:20;2.50;;;1.25;;
11064;SDS011;5585;52.530;7.320;2022-07-29T08:25:47;1.83;;;1.30;;
11064;SDS011;5585;52.530;7.320;2022-07-29T08:28:14;1.55;;;1.00;;
11064;SDS011;5585;52.530;7.320;2022-07-29T08:30:40;1.63;;;1.00;;
11064;SDS011;5585;52.530;7.320;2022-07-29T08:33:07;2.55;;;1.30;;
11064;SDS011;5585;52.530;7.320;2022-07-29T08:35:33;4.85;;;1.58;;
11064;SDS011;5585;52.530;7.320;2022-07-29T08:38:01;2.05;;;1.23;;
11064;SDS011;5585;52.530;7.320;2022-07-29T08:40:28;1.63;;;1.20;;
11064;SDS011;5585;52.530;7.320;2022-07-29T08:42:54;2.95;;;1.25;;
11064;SDS011;5585;52.530;7.320;2022-07-29T08:45:21;2.47;;;0.90;;
11064;SDS011;5585;52.530;7.320;2022-07-29T08:47:52;1.85;;;1.10;;
11064;SDS011;5585;52.530;7.320;2022-07-29T08:50:18;1.52;;;0.95;;
11064;SDS011;5585;52.530;7.320;2022-07-29T08:52:45;4.45;;;1.25;;
11064;SDS011;5585;52.530;7.320;2022-07-29T08:55:14;1.42;;;1.02;;
11064;SDS011;5585;52.530;7.320;2022-07-29T08:57:41;1.27;;;1.08;;
11064;SDS011;5585;52.530;7.320;2022-07-29T09:00:08;1.13;;;1.00;;
11064;SDS011;5585;52.530;7.320;2022-07-29T09:02:38;2.72;;;1.23;;
11064;SDS011;5585;52.530;7.320;2022-07-29T09:05:06;1.95;;;1.10;;
11064;SDS011;5585;52.530;7.320;2022-07-29T09:07:32;1.20;;;1.02;;
11064;SDS011;5585;52.530;7.320;2022-07-29T09:09:59;2.03;;;1.10;;
11064;SDS011;5585;52.530;7.320;2022-07-29T09:12:27;3.35;;;1.40;;
11064;SDS011;5585;52.530;7.320;2022-07-29T09:14:54;1.30;;;0.93;;
11064;SDS011;5585;52.530;7.320;2022-07-29T09:20:07;2.65;;;1.00;;
11064;SDS011;5585;52.530;7.320;2022-07-29T09:22:34;1.88;;;1.00;;
11064;SDS011;5585;52.530;7.320;2022-07-29T09:25:01;1.55;;;1.05;;
11064;SDS011;5585;52.530;7.320;2022-07-29T09:27:29;1.63;;;1.10;;
11064;SDS011;5585;52.530;7.320;2022-07-29T09:29:56;1.90;;;0.95;;
11064;SDS011;5585;52.530;7.320;2022-07-29T09:32:23;1.45;;;1.20;;
11064;SDS011;5585;52.530;7.320;2022-07-29T09:34:49;1.77;;;1.10;;
11064;SDS011;5585;52.530;7.320;2022-07-29T09:37:25;2.13;;;1.30;;
11064;SDS011;5585;52.530;7.320;2022-07-29T09:39:52;2.53;;;1.25;;
11064;SDS011;5585;52.530;7.320;2022-07-29T09:42:27;2.92;;;1.20;;
11064;SDS011;5585;52.530;7.320;2022-07-29T09:44:55;1.30;;;0.85;;
11064;SDS011;5585;52.530;7.320;2022-07-29T09:47:21;1.38;;;1.00;;
11064;SDS011;5585;52.530;7.320;2022-07-29T09:49:51;3.03;;;1.25;;
11064;SDS011;5585;52.530;7.320;2022-07-29T09:52:18;1.95;;;1.23;;
11064;SDS011;5585;52.530;7.320;2022-07-29T09:54:45;2.13;;;1.00;;
11064;SDS011;5585;52.530;7.320;2022-07-29T09:57:21;1.75;;;1.20;;
11064;SDS011;5585;52.530;7.320;2022-07-29T09:59:51;1.83;;;1.10;;
11064;SDS011;5585;52.530;7.320;2022-07-29T10:02:22;3.92;;;1.35;;
11064;SDS011;5585;52.530;7.320;2022-07-29T10:04:53;2.45;;;1.20;;
11064;SDS011;5585;52.530;7.320;2022-07-29T10:07:19;2.80;;;1.45;;
11064;SDS011;5585;52.530;7.320;2022-07-29T10:09:49;3.10;;;1.20;;
11064;SDS011;5585;52.530;7.320;2022-07-29T10:12:18;3.22;;;1.58;;
11064;SDS011;5585;52.530;7.320;2022-07-29T10:14:44;2.55;;;1.70;;
11064;SDS011;5585;52.530;7.320;2022-07-29T10:17:11;3.00;;;1.13;;
11064;SDS011;5585;52.530;7.320;2022-07-29T10:19:39;1.80;;;1.02;;
11064;SDS011;5585;52.530;7.320;2022-07-29T10:22:07;1.80;;;1.27;;
11064;SDS011;5585;52.530;7.320;2022-07-29T10:24:34;3.78;;;1.67;;
11064;SDS011;5585;52.530;7.320;2022-07-29T10:27:01;2.10;;;1.40;;
11064;SDS011;5585;52.530;7.320;2022-07-29T10:29:28;4.97;;;1.70;;
11064;SDS011;5585;52.530;7.320;2022-07-29T10:32:07;3.00;;;1.63;;
11064;SDS011;5585;52.530;7.320;2022-07-29T10:34:36;2.15;;;1.30;;
11064;SDS011;5585;52.530;7.320;2022-07-29T10:37:16;4.00;;;2.03;;
11064;SDS011;5585;52.530;7.320;2022-07-29T10:39:47;3.78;;;1.67;;
11064;SDS011;5585;52.530;7.320;2022-07-29T10:42:18;2.17;;;1.25;;
11064;SDS011;5585;52.530;7.320;2022-07-29T10:44:45;2.10;;;1.60;;
11064;SDS011;5585;52.530;7.320;2022-07-29T10:47:22;2.80;;;1.50;;
11064;SDS011;5585;52.530;7.320;2022-07-29T10:49:55;4.13;;;1.58;;
11064;SDS011;5585;52.530;7.320;2022-07-29T10:52:24;5.63;;;2.00;;
11064;SDS011;5585;52.530;7.320;2022-07-29T10:54:52;3.55;;;1.80;;
11064;SDS011;5585;52.530;7.320;2022-07-29T10:57:24;3.65;;;1.60;;
11064;SDS011;5585;52.530;7.320;2022-07-29T11:02:46;4.15;;;1.50;;
11064;SDS011;5585;52.530;7.320;2022-07-29T11:05:21;3.35;;;1.50;;
11064;SDS011;5585;52.530;7.320;2022-07-29T11:10:35;1.98;;;1.30;;
11064;SDS011;5585;52.530;7.320;2022-07-29T11:13:02;1.52;;;1.20;;
11064;SDS011;5585;52.530;7.320;2022-07-29T11:15:28;2.65;;;1.70;;
11064;SDS011;5585;52.530;7.320;2022-07-29T11:18:05;2.42;;;1.67;;
11064;SDS011;5585;52.530;7.320;2022-07-29T11:20:38;2.38;;;1.60;;
11064;SDS011;5585;52.530;7.320;2022-07-29T11:23:19;3.38;;;1.73;;
11064;SDS011;5585;52.530;7.320;2022-07-29T11:25:47;1.70;;;1.40;;
11064;SDS011;5585;52.530;7.320;2022-07-29T11:28:33;1.92;;;1.55;;
11064;SDS011;5585;52.530;7.320;2022-07-29T11:31:00;1.60;;;1.33;;
11064;SDS011;5585;52.530;7.320;2022-07-29T11:33:27;2.30;;;1.30;;
11064;SDS011;5585;52.530;7.320;2022-07-29T11:36:07;1.63;;;1.30;;
11064;SDS011;5585;52.530;7.320;2022-07-29T11:38:33;2.53;;;1.30;;
11064;SDS011;5585;52.530;7.320;2022-07-29T11:43:49;2.65;;;1.30;;
11064;SDS011;5585;52.530;7.320;2022-07-29T11:46:16;3.35;;;1.50;;
11064;SDS011;5585;52.530;7.320;2022-07-29T11:48:44;1.50;;;1.35;;
11064;SDS011;5585;52.530;7.320;2022-07-29T11:51:10;3.00;;;1.60;;
11064;SDS011;5585;52.530;7.320;2022-07-29T11:53:37;2.10;;;1.45;;
11064;SDS011;5585;52.530;7.320;2022-07-29T11:56:05;1.80;;;1.40;;
11064;SDS011;5585;52.530;7.320;2022-07-29T11:58:33;1.88;;;1.40;;
11064;SDS011;5585;52.530;7.320;2022-07-29T12:01:03;3.40;;;1.85;;
11064;SDS011;5585;52.530;7.320;2022-07-29T12:03:30;2.97;;;1.67;;
11064;SDS011;5585;52.530;7.320;2022-07-29T12:05:56;2.47;;;1.95;;
11064;SDS011;5585;52.530;7.320;2022-07-29T12:08:23;4.05;;;1.70;;
11064;SDS011;5585;52.530;7.320;2022-07-29T12:10:51;4.03;;;1.95;;
11064;SDS011;5585;52.530;7.320;2022-07-29T12:13:18;3.13;;;1.73;;
11064;SDS011;5585;52.530;7.320;2022-07-29T12:15:51;2.70;;;1.70;;
11064;SDS011;5585;52.530;7.320;2022-07-29T12:18:19;1.83;;;1.63;;
11064;SDS011;5585;52.530;7.320;2022-07-29T12:20:46;2.45;;;2.00;;
11064;SDS011;5585;52.530;7.320;2022-07-29T12:23:13;2.67;;;1.70;;
11064;SDS011;5585;52.530;7.320;2022-07-29T12:25:41;2.45;;;1.30;;
11064;SDS011;5585;52.530;7.320;2022-07-29T12:28:09;2.38;;;1.30;;
11064;SDS011;5585;52.530;7.320;2022-07-29T12:30:40;3.03;;;1.80;;
11064;SDS011;5585;52.530;7.320;2022-07-29T12:33:13;2.92;;;1.65;;
11064;SDS011;5585;52.530;7.320;2022-07-29T12:35:42;3.30;;;1.95;;
11064;SDS011;5585;52.530;7.320;2022-07-29T12:38:10;3.83;;;1.70;;
11064;SDS011;5585;52.530;7.320;2022-07-29T12:40:37;3.33;;;1.50;;
11064;SDS011;5585;52.530;7.320;2022-07-29T12:43:04;3.35;;;1.70;;
11064;SDS011;5585;52.530;7.320;2022-07-29T12:45:31;3.03;;;1.60;;
11064;SDS011;5585;52.530;7.320;2022-07-29T12:47:57;2.50;;;1.80;;
11064;SDS011;5585;52.530;7.320;2022-07-29T12:50:24;2.63;;;1.70;;
11064;SDS011;5585;52.530;7.320;2022-07-29T12:52:52;2.47;;;1.90;;
11064;SDS011;5585;52.530;7.320;2022-07-29T12:58:00;2.60;;;1.67;;
11064;SDS011;5585;52.530;7.320;2022-07-29T13:00:26;3.05;;;1.80;;
11064;SDS011;5585;52.530;7.320;2022-07-29T13:02:54;4.53;;;2.10;;
11064;SDS011;5585;52.530;7.320;2022-07-29T13:05:21;2.70;;;1.60;;
11064;SDS011;5585;52.530;7.320;2022-07-29T13:07:48;3.00;;;1.90;;
11064;SDS011;5585;52.530;7.320;2022-07-29T13:10:16;4.10;;;1.90;;
11064;SDS011;5585;52.530;7.320;2022-07-29T13:13:02;3.22;;;1.73;;
11064;SDS011;5585;52.530;7.320;2022-07-29T13:15:28;3.03;;;2.05;;
11064;SDS011;5585;52.530;7.320;2022-07-29T13:17:55;2.00;;;1.80;;
11064;SDS011;5585;52.530;7.320;2022-07-29T13:20:23;3.42;;;2.05;;
11064;SDS011;5585;52.530;7.320;2022-07-29T13:22:50;1.77;;;1.50;;
11064;SDS011;5585;52.530;7.320;2022-07-29T13:25:24;2.53;;;1.60;;
11064;SDS011;5585;52.530;7.320;2022-07-29T13:27:51;2.45;;;1.75;;
11064;SDS011;5585;52.530;7.320;2022-07-29T13:30:19;1.88;;;1.42;;
11064;SDS011;5585;52.530;7.320;2022-07-29T13:32:46;3.67;;;1.80;;
11064;SDS011;5585;52.530;7.320;2022-07-29T13:35:12;2.95;;;1.90;;
11064;SDS011;5585;52.530;7.320;2022-07-29T13:37:39;2.78;;;1.98;;
11064;SDS011;5585;52.530;7.320;2022-07-29T13:40:06;3.00;;;1.70;;
11064;SDS011;5585;52.530;7.320;2022-07-29T13:42:34;2.78;;;1.67;;
11064;SDS011;5585;52.530;7.320;2022-07-29T13:45:01;2.13;;;1.60;;
11064;SDS011;5585;52.530;7.320;2022-07-29T13:47:28;2.88;;;1.95;;
11064;SDS011;5585;52.530;7.320;2022-07-29T13:49:55;3.45;;;2.55;;
11064;SDS011;5585;52.530;7.320;2022-07-29T13:52:21;4.68;;;2.72;;
11064;SDS011;5585;52.530;7.320;2022-07-29T13:54:48;4.97;;;3.00;;
11064;SDS011;5585;52.530;7.320;2022-07-29T13:57:14;4.65;;;2.50;;
11064;SDS011;5585;52.530;7.320;2022-07-29T13:59:42;2.97;;;2.20;;
11064;SDS011;5585;52.530;7.320;2022-07-29T14:02:09;8.23;;;4.32;;
11064;SDS011;5585;52.530;7.320;2022-07-29T14:04:37;12.93;;;5.07;;
11064;SDS011;5585;52.530;7.320;2022-07-29T14:07:04;12.07;;;4.40;;
11064;SDS011;5585;52.530;7.320;2022-07-29T14:09:31;8.77;;;4.10;;
11064;SDS011;5585;52.530;7.320;2022-07-29T14:11:57;7.32;;;3.95;;
11064;SDS011;5585;52.530;7.320;2022-07-29T14:14:24;10.88;;;4.43;;
11064;SDS011;5585;52.530;7.320;2022-07-29T14:16:51;9.55;;;4.15;;
11064;SDS011;5585;52.530;7.320;2022-07-29T14:19:18;5.82;;;3.40;;
11064;SDS011;5585;52.530;7.320;2022-07-29T14:21:44;9.77;;;3.72;;
11064;SDS011;5585;52.530;7.320;2022-07-29T14:24:11;6.13;;;2.60;;
11064;SDS011;5585;52.530;7.320;2022-07-29T14:26:37;6.22;;;3.00;;
11064;SDS011;5585;52.530;7.320;2022-07-29T14:29:04;5.32;;;2.92;;
11064;SDS011;5585;52.530;7.320;2022-07-29T14:31:30;6.60;;;2.50;;
11064;SDS011;5585;52.530;7.320;2022-07-29T14:33:58;3.42;;;2.13;;
11064;SDS011;5585;52.530;7.320;2022-07-29T14:36:24;4.57;;;2.30;;
11064;SDS011;5585;52.530;7.320;2022-07-29T14:38:52;3.72;;;2.20;;
11064;SDS011;5585;52.530;7.320;2022-07-29T14:41:18;6.03;;;2.25;;
11064;SDS011;5585;52.530;7.320;2022-07-29T14:43:46;3.53;;;2.00;;
11064;SDS011;5585;52.530;7.320;2022-07-29T14:46:13;3.40;;;2.25;;
11064;SDS011;5585;52.530;7.320;2022-07-29T14:48:39;3.53;;;2.10;;
11064;SDS011;5585;52.530;7.320;2022-07-29T14:51:07;3.13;;;2.30;;
11064;SDS011;5585;52.530;7.320;2022-07-29T14:53:34;3.97;;;2.05;;
11064;SDS011;5585;52.530;7.320;2022-07-29T14:56:00;3.88;;;1.73;;
11064;SDS011;5585;52.530;7.320;2022-07-29T14:58:26;3.15;;;1.77;;
11064;SDS011;5585;52.530;7.320;2022-07-29T15:00:53;3.20;;;2.00;;
11064;SDS011;5585;52.530;7.320;2022-07-29T15:03:21;5.18;;;1.90;;
11064;SDS011;5585;52.530;7.320;2022-07-29T15:05:48;2.80;;;1.95;;
11064;SDS011;5585;52.530;7.320;2022-07-29T15:08:16;2.78;;;1.60;;
11064;SDS011;5585;52.530;7.320;2022-07-29T15:10:42;2.25;;;1.98;;
11064;SDS011;5585;52.530;7.320;2022-07-29T15:13:08;3.38;;;1.92;;
11064;SDS011;5585;52.530;7.320;2022-07-29T15:15:35;4.60;;;2.05;;
11064;SDS011;5585;52.530;7.320;2022-07-29T15:18:01;3.70;;;1.65;;